createdAt,value
2018-10-19T00:00:42.525Z,17.87
2018-10-19T00:03:10.555Z,18.47
2018-10-19T00:05:38.488Z,17.90
2018-10-19T00:08:06.696Z,16.97
2018-10-19T00:10:34.628Z,18.87
2018-10-19T00:13:02.819Z,17.80
2018-10-19T00:15:30.740Z,17.93
2018-10-19T00:17:58.633Z,17.87
2018-10-19T00:20:26.478Z,18.07
2018-10-19T00:22:54.295Z,17.90
2018-10-19T00:25:22.162Z,17.40
2018-10-19T00:27:49.983Z,18.50
2018-10-19T00:30:17.708Z,18.40
2018-10-19T00:32:45.894Z,18.47
2018-10-19T00:35:14.102Z,18.77
2018-10-19T00:37:42.054Z,18.50
2018-10-19T00:40:09.933Z,15.60
2018-10-19T00:42:38.028Z,15.93
2018-10-19T00:45:06.416Z,17.23
2018-10-19T00:47:34.155Z,16.80
2018-10-19T00:50:01.870Z,15.63
2018-10-19T00:52:30.153Z,16.10
2018-10-19T00:54:58.136Z,16.73
2018-10-19T00:57:26.136Z,16.00
2018-10-19T00:59:53.959Z,17.00
2018-10-19T01:02:22.054Z,17.23
2018-10-19T01:04:49.919Z,17.63
2018-10-19T01:07:18.814Z,17.50
2018-10-19T01:09:46.582Z,16.53
2018-10-19T01:12:14.465Z,17.17
2018-10-19T01:14:42.495Z,17.00
2018-10-19T01:17:10.512Z,19.73
2018-10-19T01:19:38.252Z,19.27
2018-10-19T01:22:06.191Z,18.60
2018-10-19T01:24:33.905Z,18.43
2018-10-19T01:27:01.850Z,16.90
2018-10-19T01:29:29.591Z,16.73
2018-10-19T01:31:57.640Z,17.90
2018-10-19T01:34:25.681Z,17.47
2018-10-19T01:36:53.506Z,17.77
2018-10-19T01:39:21.356Z,15.90
2018-10-19T01:41:49.409Z,16.37
2018-10-19T01:44:17.693Z,16.03
2018-10-19T01:46:48.680Z,16.50
2018-10-19T01:49:17.364Z,15.73
2018-10-19T01:51:45.295Z,14.37
2018-10-19T01:54:13.039Z,15.07
2018-10-19T01:56:41.005Z,15.93
2018-10-19T01:59:08.927Z,18.60
2018-10-19T02:01:36.995Z,18.20
2018-10-19T02:04:05.679Z,17.23
2018-10-19T02:06:33.738Z,18.47
2018-10-19T02:09:01.869Z,18.90
2018-10-19T02:11:30.551Z,18.60
2018-10-19T02:13:58.344Z,18.30
2018-10-19T02:16:26.415Z,18.00
2018-10-19T02:18:54.264Z,16.47
2018-10-19T02:21:22.201Z,17.47
2018-10-19T02:23:50.050Z,18.50
2018-10-19T02:26:17.942Z,17.50
2018-10-19T02:28:45.704Z,17.60
2018-10-19T02:31:13.601Z,18.00
2018-10-19T02:33:41.501Z,20.00
2018-10-19T02:36:09.456Z,19.57
2018-10-19T02:38:37.338Z,18.97
2018-10-19T02:41:05.739Z,16.40
2018-10-19T02:43:33.573Z,19.13
2018-10-19T02:46:01.388Z,20.77
2018-10-19T02:48:29.235Z,19.83
2018-10-19T02:50:57.134Z,20.50
2018-10-19T02:53:25.005Z,20.40
2018-10-19T02:55:52.726Z,19.10
2018-10-19T02:58:20.590Z,17.53
2018-10-19T03:00:48.409Z,20.73
2018-10-19T03:03:16.278Z,20.50
2018-10-19T03:05:44.251Z,19.30
2018-10-19T03:08:11.986Z,20.23
2018-10-19T03:10:39.709Z,20.03
2018-10-19T03:13:07.578Z,19.80
2018-10-19T03:15:35.324Z,23.40
2018-10-19T03:18:03.105Z,22.43
2018-10-19T03:20:30.845Z,22.87
2018-10-19T03:22:58.558Z,23.00
2018-10-19T03:25:26.331Z,24.60
2018-10-19T03:27:54.170Z,24.13
2018-10-19T03:30:21.944Z,24.67
2018-10-19T03:32:49.920Z,23.23
2018-10-19T03:35:17.793Z,22.40
2018-10-19T03:37:45.435Z,23.90
2018-10-19T03:40:13.234Z,24.13
2018-10-19T03:42:41.021Z,22.83
2018-10-19T03:45:09.041Z,24.03
2018-10-19T03:47:36.915Z,24.53
2018-10-19T03:50:05.547Z,23.50
2018-10-19T03:52:33.455Z,27.47
2018-10-19T03:55:01.232Z,27.23
2018-10-19T03:57:29.108Z,25.60
2018-10-19T03:59:57.085Z,24.50
2018-10-19T04:02:25.460Z,25.90
2018-10-19T04:04:53.369Z,26.00
2018-10-19T04:07:21.240Z,26.70
2018-10-19T04:09:49.132Z,25.63
2018-10-19T04:12:17.092Z,26.87
2018-10-19T04:14:45.403Z,27.50
2018-10-19T04:17:14.405Z,41.13
2018-10-19T04:19:42.368Z,33.87
2018-10-19T04:22:10.318Z,31.83
2018-10-19T04:24:38.101Z,29.43
2018-10-19T04:27:06.339Z,29.37
2018-10-19T04:29:34.879Z,28.20
2018-10-19T04:32:02.965Z,27.70
2018-10-19T04:34:30.956Z,29.20
2018-10-19T04:37:02.506Z,27.77
2018-10-19T04:39:30.418Z,26.67
2018-10-19T04:41:58.492Z,27.63
2018-10-19T04:44:26.714Z,26.03
2018-10-19T04:46:54.719Z,26.30
2018-10-19T04:49:22.772Z,25.60
2018-10-19T04:51:50.820Z,27.33
2018-10-19T04:54:18.936Z,28.30
2018-10-19T04:56:47.307Z,27.10
2018-10-19T04:59:15.693Z,25.83
2018-10-19T05:01:43.783Z,26.40
2018-10-19T05:04:13.625Z,26.53
2018-10-19T05:06:41.756Z,26.23
2018-10-19T05:09:11.336Z,26.10
2018-10-19T05:11:39.760Z,23.73
2018-10-19T05:14:08.519Z,24.80
2018-10-19T05:16:37.220Z,26.10
2018-10-19T05:19:06.484Z,25.40
2018-10-19T05:21:35.234Z,23.53
2018-10-19T05:24:03.343Z,23.63
2018-10-19T05:26:31.371Z,24.07
2018-10-19T05:28:59.447Z,24.10
2018-10-19T05:31:27.781Z,22.47
2018-10-19T05:33:56.784Z,22.50
2018-10-19T05:36:25.462Z,21.70
2018-10-19T05:38:53.597Z,22.83
2018-10-19T05:41:21.771Z,20.80
2018-10-19T05:43:50.080Z,32.80
2018-10-19T05:46:17.982Z,33.70
2018-10-19T05:48:45.934Z,31.67
2018-10-19T05:51:13.819Z,31.90
2018-10-19T05:53:41.812Z,23.70
2018-10-19T05:56:09.803Z,22.90
2018-10-19T05:58:37.853Z,21.37
2018-10-19T06:01:05.804Z,22.03
2018-10-19T06:03:33.937Z,21.13
2018-10-19T06:06:02.260Z,20.93
2018-10-19T06:08:31.401Z,21.93
2018-10-19T06:10:59.767Z,24.23
2018-10-19T06:13:28.975Z,22.00
2018-10-19T06:15:57.095Z,24.60
2018-10-19T06:18:25.144Z,25.60
2018-10-19T06:20:53.099Z,27.00
2018-10-19T06:23:21.024Z,25.10
2018-10-19T06:25:49.325Z,25.90
2018-10-19T06:28:17.475Z,26.30
2018-10-19T06:30:46.163Z,25.07
2018-10-19T06:33:14.197Z,24.07
2018-10-19T06:35:42.233Z,23.03
2018-10-19T06:38:10.669Z,23.10
2018-10-19T06:40:38.664Z,24.07
2018-10-19T06:43:06.594Z,24.40
2018-10-19T06:45:34.345Z,23.57
2018-10-19T06:48:02.601Z,23.13
2018-10-19T06:50:30.812Z,25.57
2018-10-19T06:52:58.597Z,25.57
2018-10-19T06:55:26.713Z,24.80
2018-10-19T06:57:54.675Z,27.80
2018-10-19T07:00:22.613Z,26.43
2018-10-19T07:02:51.059Z,27.20
2018-10-19T07:05:18.857Z,27.07
2018-10-19T07:07:46.927Z,28.10
2018-10-19T07:10:14.919Z,26.47
2018-10-19T07:12:42.812Z,26.20
2018-10-19T07:15:11.332Z,26.83
2018-10-19T07:17:39.675Z,25.00
2018-10-19T07:20:09.057Z,28.40
2018-10-19T07:22:37.274Z,26.03
2018-10-19T07:25:05.668Z,26.00
2018-10-19T07:27:33.979Z,24.93
2018-10-19T07:30:01.949Z,26.67
2018-10-19T07:32:30.247Z,27.53
2018-10-19T07:34:58.470Z,26.60
2018-10-19T07:37:26.549Z,27.87
2018-10-19T07:39:54.380Z,28.07
2018-10-19T07:42:23.142Z,28.17
2018-10-19T07:44:51.004Z,26.50
2018-10-19T07:47:22.809Z,27.60
2018-10-19T07:49:52.797Z,27.70
2018-10-19T07:52:20.632Z,27.30
2018-10-19T07:54:48.916Z,27.77
2018-10-19T07:57:17.466Z,30.50
2018-10-19T07:59:45.631Z,29.20
2018-10-19T08:02:13.737Z,28.40
2018-10-19T08:04:43.727Z,28.87
2018-10-19T08:07:12.646Z,31.13
2018-10-19T08:09:40.849Z,30.67
2018-10-19T08:12:08.843Z,30.27
2018-10-19T08:14:37.120Z,29.87
2018-10-19T08:17:05.250Z,31.00
2018-10-19T08:19:33.268Z,30.83
2018-10-19T08:22:01.139Z,31.37
2018-10-19T08:24:29.398Z,32.13
2018-10-19T08:26:57.813Z,31.07
2018-10-19T08:29:25.899Z,28.80
2018-10-19T08:31:54.039Z,31.23
2018-10-19T08:34:21.872Z,30.80
2018-10-19T08:36:49.818Z,28.37
2018-10-19T08:39:17.651Z,29.90
2018-10-19T08:41:47.659Z,29.30
2018-10-19T08:44:16.259Z,29.67
2018-10-19T08:46:44.506Z,29.20
2018-10-19T08:49:12.624Z,29.40
2018-10-19T08:51:41.430Z,28.87
2018-10-19T08:54:09.605Z,29.50
2018-10-19T08:56:38.385Z,27.23
2018-10-19T08:59:06.340Z,28.43
2018-10-19T09:01:34.279Z,27.33
2018-10-19T09:04:02.439Z,27.50
2018-10-19T09:06:30.379Z,28.03
2018-10-19T09:09:00.000Z,28.50
2018-10-19T09:11:28.250Z,26.63
2018-10-19T09:13:56.408Z,27.50
2018-10-19T09:16:24.435Z,26.43
2018-10-19T09:18:52.493Z,26.63
2018-10-19T09:21:21.008Z,26.33
2018-10-19T09:23:48.934Z,25.40
2018-10-19T09:26:17.027Z,24.60
2018-10-19T09:28:44.960Z,23.50
2018-10-19T09:31:12.875Z,25.27
2018-10-19T09:33:40.659Z,24.77
2018-10-19T09:36:08.847Z,24.40
2018-10-19T09:38:37.251Z,22.23
2018-10-19T09:41:05.282Z,24.30
2018-10-19T09:43:33.210Z,23.33
2018-10-19T09:46:01.457Z,23.83
2018-10-19T09:48:29.510Z,23.63
2018-10-19T09:53:51.581Z,22.50
2018-10-19T09:56:19.980Z,22.03
2018-10-19T09:58:47.868Z,22.67
2018-10-19T10:01:21.565Z,21.03
2018-10-19T10:03:49.590Z,21.37
2018-10-19T10:06:17.878Z,21.70
2018-10-19T10:08:45.957Z,21.43
2018-10-19T10:11:13.895Z,19.77
2018-10-19T10:13:42.609Z,20.40
2018-10-19T10:16:10.709Z,20.47
2018-10-19T10:18:38.891Z,19.67
2018-10-19T10:21:07.130Z,19.73
2018-10-19T10:23:34.996Z,19.70
2018-10-19T10:26:03.064Z,19.20
2018-10-19T10:28:31.910Z,19.00
2018-10-19T10:30:59.849Z,17.90
2018-10-19T10:33:27.851Z,18.70
2018-10-19T10:35:55.754Z,18.20
2018-10-19T10:38:23.694Z,18.13
2018-10-19T10:40:51.794Z,18.73
2018-10-19T10:43:19.655Z,17.70
2018-10-19T10:45:47.595Z,18.73
2018-10-19T10:48:15.846Z,17.97
2018-10-19T10:50:43.955Z,17.53
2018-10-19T10:53:12.072Z,18.30
2018-10-19T10:55:40.095Z,16.00
2018-10-19T10:58:08.329Z,17.77
2018-10-19T11:00:36.337Z,16.57
2018-10-19T11:03:04.542Z,16.33
2018-10-19T11:05:32.646Z,16.57
2018-10-19T11:08:00.981Z,18.17
2018-10-19T11:10:29.071Z,15.90
2018-10-19T11:12:57.270Z,14.93
2018-10-19T11:15:25.277Z,16.30
2018-10-19T11:17:53.486Z,14.80
2018-10-19T11:20:21.580Z,14.10
2018-10-19T11:22:49.891Z,13.63
2018-10-19T11:25:17.776Z,13.03
2018-10-19T11:27:47.052Z,12.40
2018-10-19T11:30:15.026Z,13.30
2018-10-19T11:32:43.226Z,12.87
2018-10-19T11:35:11.168Z,12.70
2018-10-19T11:37:39.292Z,11.90
2018-10-19T11:40:21.302Z,11.60
2018-10-19T11:42:49.949Z,12.33
2018-10-19T11:45:18.187Z,13.17
2018-10-19T11:47:46.019Z,11.30
2018-10-19T11:50:14.159Z,13.13
2018-10-19T11:52:42.937Z,11.97
2018-10-19T11:55:11.155Z,10.50
2018-10-19T11:57:39.298Z,10.67
2018-10-19T12:00:08.085Z,10.80
2018-10-19T12:02:36.846Z,10.80
2018-10-19T12:05:05.950Z,9.30
2018-10-19T12:07:34.177Z,10.30
2018-10-19T12:10:02.400Z,10.13
2018-10-19T12:12:30.491Z,9.63
2018-10-19T12:14:59.109Z,9.70
2018-10-19T12:17:27.164Z,9.73
2018-10-19T12:19:55.113Z,9.40
2018-10-19T12:22:23.615Z,9.87
2018-10-19T12:24:51.677Z,9.73
2018-10-19T12:27:19.961Z,9.60
2018-10-19T12:29:49.013Z,10.13
2018-10-19T12:32:17.065Z,8.80
2018-10-19T12:34:44.843Z,9.93
2018-10-19T12:37:12.974Z,9.93
2018-10-19T12:39:41.162Z,8.97
2018-10-19T12:42:09.437Z,11.03
2018-10-19T12:44:38.406Z,8.67
2018-10-19T12:47:17.810Z,8.37
2018-10-19T12:49:46.025Z,9.10
2018-10-19T12:52:14.792Z,9.57
2018-10-19T12:54:42.817Z,9.57
2018-10-19T12:57:10.749Z,10.20
2018-10-19T12:59:38.725Z,9.13
2018-10-19T13:02:12.151Z,10.27
2018-10-19T13:04:40.627Z,9.77
2018-10-19T13:07:09.256Z,9.73
2018-10-19T13:09:37.243Z,9.90
2018-10-19T13:12:05.346Z,9.70
2018-10-19T13:14:33.337Z,10.47
2018-10-19T13:17:01.265Z,8.50
2018-10-19T13:19:29.511Z,9.30
2018-10-19T13:21:58.561Z,8.67
2018-10-19T13:24:27.569Z,8.90
2018-10-19T13:26:55.583Z,8.40
2018-10-19T13:29:23.613Z,8.57
2018-10-19T13:31:52.049Z,8.80
2018-10-19T13:34:20.012Z,9.27
2018-10-19T13:36:48.036Z,8.00
2018-10-19T13:39:16.314Z,8.53
2018-10-19T13:41:44.470Z,7.40
2018-10-19T13:44:12.670Z,7.90
2018-10-19T13:46:41.411Z,8.00
2018-10-19T13:49:09.584Z,7.53
2018-10-19T13:51:38.497Z,8.43
2018-10-19T13:54:07.002Z,8.17
2018-10-19T13:56:35.631Z,7.13
2018-10-19T13:59:03.511Z,8.17
2018-10-19T14:01:31.657Z,6.93
2018-10-19T14:03:59.673Z,7.40
2018-10-19T14:06:27.659Z,7.43
2018-10-19T14:08:55.910Z,7.37
2018-10-19T14:11:24.372Z,8.07
2018-10-19T14:13:53.023Z,7.40
2018-10-19T14:16:21.024Z,7.27
2018-10-19T14:18:49.221Z,7.20
2018-10-19T14:21:18.501Z,7.27
2018-10-19T14:23:46.314Z,7.10
2018-10-19T14:26:14.411Z,7.13
2018-10-19T14:28:42.504Z,12.40
2018-10-19T14:31:10.557Z,7.50
2018-10-19T14:33:38.817Z,7.20
2018-10-19T14:36:06.982Z,7.27
2018-10-19T14:38:34.873Z,14.57
2018-10-19T14:41:02.845Z,6.90
2018-10-19T14:43:31.381Z,8.23
2018-10-19T14:45:59.487Z,7.00
2018-10-19T14:48:27.457Z,6.80
2018-10-19T14:50:56.077Z,7.87
2018-10-19T14:53:24.181Z,7.97
2018-10-19T14:55:53.473Z,7.40
2018-10-19T14:58:22.026Z,6.73
2018-10-19T15:00:49.997Z,7.57
2018-10-19T15:03:19.295Z,8.20
2018-10-19T15:05:48.217Z,6.97
2018-10-19T15:08:16.562Z,6.77
2018-10-19T15:10:45.783Z,7.13
2018-10-19T15:13:14.442Z,7.27
2018-10-19T15:15:43.001Z,7.93
2018-10-19T15:18:11.025Z,6.60
2018-10-19T15:20:38.968Z,6.97
2018-10-19T15:23:07.658Z,6.07
2018-10-19T15:25:36.039Z,6.57
2018-10-19T15:28:04.498Z,6.33
2018-10-19T15:30:32.438Z,7.03
2018-10-19T15:33:01.503Z,7.00
2018-10-19T15:35:29.937Z,5.73
2018-10-19T15:37:58.181Z,6.60
2018-10-19T15:40:26.577Z,8.03
2018-10-19T15:42:55.002Z,7.07
2018-10-19T15:45:23.087Z,6.37
2018-10-19T15:47:51.115Z,6.10
2018-10-19T15:50:19.264Z,6.03
2018-10-19T15:52:48.081Z,6.80
2018-10-19T15:55:16.325Z,6.50
2018-10-19T15:57:44.660Z,7.03
2018-10-19T16:00:12.499Z,9.30
2018-10-19T16:02:41.025Z,6.83
2018-10-19T16:05:09.502Z,7.70
2018-10-19T16:07:38.200Z,7.00
2018-10-19T16:10:07.005Z,5.87
2018-10-19T16:12:35.886Z,6.23
2018-10-19T16:15:06.210Z,6.20
2018-10-19T16:17:34.949Z,5.10
2018-10-19T16:20:03.066Z,4.80
2018-10-19T16:22:31.380Z,4.00
2018-10-19T16:24:59.334Z,3.90
2018-10-19T16:27:28.760Z,4.47
2018-10-19T16:29:56.717Z,5.00
2018-10-19T16:32:26.621Z,5.07
2018-10-19T16:34:54.530Z,4.90
2018-10-19T16:37:22.785Z,4.40
2018-10-19T16:39:51.343Z,5.00
2018-10-19T16:42:20.441Z,4.70
2018-10-19T16:44:48.501Z,5.17
2018-10-19T16:47:18.120Z,4.80
2018-10-19T16:49:46.409Z,4.80
2018-10-19T16:52:14.245Z,7.17
2018-10-19T16:54:42.464Z,5.90
2018-10-19T16:57:10.591Z,6.43
2018-10-19T16:59:45.579Z,5.57
2018-10-19T17:02:14.225Z,5.43
2018-10-19T17:04:43.094Z,5.97
2018-10-19T17:07:12.148Z,5.67
2018-10-19T17:09:40.263Z,6.20
2018-10-19T17:12:08.445Z,5.90
2018-10-19T17:14:40.233Z,6.60
2018-10-19T17:17:08.488Z,6.83
2018-10-19T17:19:36.674Z,6.07
2018-10-19T17:22:05.366Z,9.07
2018-10-19T17:24:34.478Z,26.00
2018-10-19T17:27:02.946Z,20.87
2018-10-19T17:29:31.936Z,18.17
2018-10-19T17:32:01.168Z,13.50
2018-10-19T17:34:29.915Z,12.03
2018-10-19T17:37:00.124Z,11.90
2018-10-19T17:39:28.380Z,5.57
2018-10-19T17:41:56.575Z,14.30
2018-10-19T17:44:25.146Z,16.33
2018-10-19T17:46:53.298Z,15.50
2018-10-19T17:49:21.323Z,14.97
2018-10-19T17:51:50.007Z,15.47
2018-10-19T17:54:18.510Z,19.00
2018-10-19T17:56:47.183Z,18.47
2018-10-19T17:59:15.810Z,13.30
2018-10-19T18:01:43.843Z,14.10
2018-10-19T18:04:12.846Z,14.03
2018-10-19T18:06:40.876Z,13.10
2018-10-19T18:09:12.011Z,12.30
2018-10-19T18:11:40.373Z,10.13
2018-10-19T18:14:08.631Z,13.80
2018-10-19T18:16:36.784Z,14.30
2018-10-19T18:19:05.592Z,9.00
2018-10-19T18:21:34.210Z,10.83
2018-10-19T18:24:02.379Z,10.27
2018-10-19T18:26:30.687Z,6.30
2018-10-19T18:29:00.503Z,5.43
2018-10-19T18:31:30.721Z,9.40
2018-10-19T18:33:58.646Z,16.00
2018-10-19T18:36:26.880Z,15.90
2018-10-19T18:38:54.895Z,12.53
2018-10-19T18:44:13.872Z,12.37
2018-10-19T18:46:41.937Z,13.73
2018-10-19T18:49:10.627Z,15.17
2018-10-19T18:51:38.953Z,12.23
2018-10-19T18:54:07.536Z,12.77
2018-10-19T18:56:36.442Z,12.67
2018-10-19T18:59:04.559Z,13.10
2018-10-19T19:01:32.993Z,11.57
2018-10-19T19:04:02.704Z,9.27
2018-10-19T19:06:30.726Z,9.50
2018-10-19T19:09:00.169Z,7.07
2018-10-19T19:11:28.261Z,9.10
2018-10-19T19:13:56.806Z,10.20
2018-10-19T19:16:27.901Z,7.80
2018-10-19T19:18:57.976Z,5.90
2018-10-19T19:21:26.945Z,6.17
2018-10-19T19:24:00.839Z,4.60
2018-10-19T19:26:29.151Z,6.87
2018-10-19T19:28:58.049Z,11.60
2018-10-19T19:31:27.910Z,17.50
2018-10-19T19:34:02.006Z,19.20
2018-10-19T19:36:30.181Z,20.20
2018-10-19T19:38:58.189Z,21.53
2018-10-19T19:41:31.702Z,24.13
2018-10-19T19:44:00.945Z,23.60
2018-10-19T19:46:29.540Z,29.20
2018-10-19T19:49:03.185Z,30.47
2018-10-19T19:51:31.295Z,21.47
2018-10-19T19:54:00.422Z,14.10
2018-10-19T19:56:29.193Z,14.70
2018-10-19T19:59:00.035Z,17.20
2018-10-19T20:01:28.724Z,18.30
2018-10-19T20:03:56.896Z,23.33
2018-10-19T20:06:24.915Z,21.87
2018-10-19T20:08:53.344Z,19.90
2018-10-19T20:11:21.818Z,19.17
2018-10-19T20:13:51.763Z,17.80
2018-10-19T20:16:23.851Z,15.17
2018-10-19T20:18:52.343Z,17.27
2018-10-19T20:21:20.458Z,14.73
2018-10-19T20:23:48.598Z,13.57
2018-10-19T20:26:17.047Z,17.03
2018-10-19T20:28:45.350Z,19.37
2018-10-19T20:31:13.312Z,19.93
2018-10-19T20:33:41.945Z,18.00
2018-10-19T20:36:10.702Z,15.87
2018-10-19T20:38:39.215Z,14.97
2018-10-19T20:41:08.886Z,12.80
2018-10-19T20:43:37.116Z,9.57
2018-10-19T20:46:05.816Z,6.70
2018-10-19T20:48:34.090Z,5.90
2018-10-19T20:51:02.310Z,5.50
2018-10-19T20:53:31.875Z,5.33
2018-10-19T20:56:00.206Z,5.30
2018-10-19T20:58:28.296Z,5.40
2018-10-19T21:00:56.632Z,5.60
2018-10-19T21:03:24.609Z,5.10
2018-10-19T21:05:52.548Z,4.50
2018-10-19T21:08:20.408Z,4.23
2018-10-19T21:10:49.327Z,4.27
2018-10-19T21:13:18.389Z,4.60
2018-10-19T21:15:47.767Z,4.47
2018-10-19T21:18:15.926Z,4.30
2018-10-19T21:20:43.927Z,4.23
2018-10-19T21:23:11.890Z,4.40
2018-10-19T21:25:39.845Z,5.70
2018-10-19T21:28:08.315Z,7.40
2018-10-19T21:30:36.583Z,5.90
2018-10-19T21:33:04.888Z,4.93
2018-10-19T21:35:33.898Z,4.40
2018-10-19T21:38:02.475Z,5.77
2018-10-19T21:40:31.276Z,5.83
2018-10-19T21:42:59.397Z,5.00
2018-10-19T21:45:27.297Z,4.83
2018-10-19T21:47:55.256Z,5.37
2018-10-19T21:50:23.505Z,5.20
2018-10-19T21:52:53.238Z,5.50
2018-10-19T21:55:21.588Z,3.60
2018-10-19T21:57:49.398Z,5.07
2018-10-19T22:00:17.641Z,5.63
2018-10-19T22:02:45.793Z,5.20
2018-10-19T22:05:13.953Z,5.30
2018-10-19T22:07:41.832Z,5.80
2018-10-19T22:10:10.130Z,4.83
2018-10-19T22:12:38.498Z,4.80
2018-10-19T22:15:07.325Z,4.80
2018-10-19T22:17:35.237Z,5.80
2018-10-19T22:20:03.084Z,7.37
2018-10-19T22:22:31.057Z,7.83
2018-10-19T22:24:59.174Z,8.33
2018-10-19T22:27:27.375Z,7.47
2018-10-19T22:29:55.333Z,6.67
2018-10-19T22:32:23.909Z,6.87
2018-10-19T22:34:51.986Z,6.80
2018-10-19T22:37:19.922Z,6.40
2018-10-19T22:39:47.852Z,7.30
2018-10-19T22:42:16.017Z,6.63
2018-10-19T22:44:44.026Z,6.23
2018-10-19T22:47:12.445Z,6.53
2018-10-19T22:49:40.502Z,7.00
2018-10-19T22:52:08.419Z,5.50
2018-10-19T22:54:36.387Z,6.47
2018-10-19T22:57:04.556Z,6.33
2018-10-19T22:59:32.821Z,5.70
2018-10-19T23:02:01.116Z,4.40
2018-10-19T23:04:29.095Z,4.73
2018-10-19T23:06:57.123Z,4.60
2018-10-19T23:09:25.207Z,5.90
2018-10-19T23:11:53.336Z,5.27
2018-10-19T23:14:22.069Z,5.07
2018-10-19T23:16:49.866Z,4.40
2018-10-19T23:19:17.689Z,4.60
2018-10-19T23:21:45.942Z,4.53
2018-10-19T23:24:13.823Z,4.43
2018-10-19T23:26:42.007Z,5.13
2018-10-19T23:29:09.981Z,4.87
2018-10-19T23:31:38.006Z,4.50
2018-10-19T23:34:05.959Z,4.60
2018-10-19T23:36:34.364Z,4.93
2018-10-19T23:39:02.420Z,4.67
2018-10-19T23:41:30.275Z,4.70
2018-10-19T23:43:58.231Z,4.77
2018-10-19T23:46:26.164Z,4.73
2018-10-19T23:48:54.166Z,5.03
2018-10-19T23:51:22.172Z,4.37
2018-10-19T23:53:50.115Z,4.30
2018-10-19T23:56:18.023Z,5.00
2018-10-19T23:58:46.230Z,4.40
